Airfield :
LOGIN :

Register | Disclaimer

   EN    FR    IT 

 










Legend :    VFR   Marginal VFR   IFR   Intensive IFR   Very Intensive IFR
Visi :
Ceiling :
>= 8 km
>= 3000ft
5 to 8 km
1000 to 3000 ft
1500m to 5 km
500 to 1000 ft
800 to 1500m
200 to 500 ft
< 800m
< 200 ft
Symbols :   Thunderstorms  Fog  Heavy snow  Heavy precipitations  Wind > 20 kt
SIGMETs :     Misc.  Thunderstorms  Icing  Turbulence  Mountain Waves  Volcanic Ashes






- Airport Elevation : 39 ft
- IATA code : TRS


LIPQ - Friuli Venezia Giulia Apt. Trieste

CURRENT METAR :
  • 211450Z AUTO 35012KT 320V020 9999 BKN090/// 15/01 Q1012

EXPIRED METARs :
  • 211420Z AUTO VRB03KT 9999 SCT093/// BKN130/// 16/M01 Q1012
  • 211350Z AUTO 01007KT 9999 BKN090/// BKN180/// 15/M00 Q1012
  • 211320Z AUTO 01005KT 330V040 9999 FEW073/// BKN190/// BKN220/// 15/M02 Q1012
  • 211250Z AUTO 04007KT 340V150 9999 FEW032/// BKN070/// 14/M03 Q1012
  • 211220Z AUTO VRB03KT 9999 SCT074/// BKN086/// 15/M02 Q1012
  • 211150Z AUTO 23005KT 170V310 9999 FEW083/// 16/M01 Q1012
  • 211120Z AUTO VRB05KT 9999 BKN080/// 16/M01 Q1012
  • 211050Z AUTO 11004KT 030V190 9999 NCD 15/M03 Q1013
  • 211020Z AUTO VRB04KT 9999 SCT190/// 15/M02 Q1013
  • 210950Z AUTO VRB04KT 9999 NCD 15/M01 Q1013

TAF TAF LIPQ
Valid from the 21 at 12:00 until the 22 at 12:00 UTC


211100Z 2112/2212 VRB05KT CAVOK
PROB30
TEMPO 2116/2121 SHRA
BECMG 2200/2202 09010KT
TEMPO 2205/2212 09018G30KT



MET'MAP, your aeronautical weather chart ! - Copyright ORBIFLY December 2007 - Disclaimer

ORBIFLY MET'MAP TEAM :

Programming & Development : Alexandra Zaïnal
Original concept : Baudouin d'Aumeries
Technical & hardware support : Manuel Goepfert
Assistance : Marc-Olivier Méhu




SOURCES & CREDITS :

   NOAA